createdAt,value
2023-03-18T00:00:00.691Z,36.47
2023-03-18T00:03:03.087Z,38.30
2023-03-18T00:06:09.654Z,30.73
2023-03-18T00:09:13.500Z,30.73
2023-03-18T00:12:15.487Z,35.60
2023-03-18T00:15:18.965Z,36.07
2023-03-18T00:18:20.935Z,35.43
2023-03-18T00:21:23.631Z,33.53
2023-03-18T00:24:27.844Z,35.93
2023-03-18T00:27:31.622Z,31.60
2023-03-18T00:30:37.379Z,32.73
2023-03-18T00:33:41.174Z,28.83
2023-03-18T00:36:45.671Z,33.47
2023-03-18T00:39:48.046Z,29.47
2023-03-18T00:42:57.577Z,32.73
2023-03-18T00:46:00.590Z,31.07
2023-03-18T00:49:06.312Z,37.57
2023-03-18T00:52:08.666Z,30.37
2023-03-18T00:55:11.071Z,34.23
2023-03-18T00:58:13.635Z,32.03
2023-03-18T01:01:17.862Z,29.90
2023-03-18T01:04:21.532Z,29.67
2023-03-18T01:07:24.228Z,29.77
2023-03-18T01:10:27.243Z,30.20
2023-03-18T01:13:30.135Z,31.40
2023-03-18T01:16:32.619Z,26.57
2023-03-18T01:19:35.861Z,28.33
2023-03-18T01:22:41.364Z,30.47
2023-03-18T01:25:44.671Z,31.60
2023-03-18T01:28:48.050Z,29.13
2023-03-18T01:31:51.405Z,27.00
2023-03-18T01:34:53.736Z,30.97
2023-03-18T01:37:55.742Z,23.57
2023-03-18T01:40:59.643Z,29.23
2023-03-18T01:44:02.214Z,27.50
2023-03-18T01:47:04.585Z,27.20
2023-03-18T01:50:06.832Z,30.77
2023-03-18T01:53:13.856Z,29.63
2023-03-18T01:56:17.964Z,27.37
2023-03-18T01:59:22.537Z,28.70
2023-03-18T02:02:26.136Z,26.47
2023-03-18T02:05:29.696Z,31.07
2023-03-18T02:08:31.693Z,30.13
2023-03-18T02:11:38.473Z,28.33
2023-03-18T02:14:41.059Z,32.43
2023-03-18T02:17:49.501Z,28.30
2023-03-18T02:21:03.607Z,23.33
2023-03-18T02:24:18.058Z,29.07
2023-03-18T02:27:25.699Z,29.90
2023-03-18T02:30:33.913Z,31.67
2023-03-18T02:33:39.651Z,28.87
2023-03-18T02:36:42.656Z,27.30
2023-03-18T02:39:44.734Z,30.60
2023-03-18T02:42:48.077Z,27.20
2023-03-18T02:46:08.237Z,25.70
2023-03-18T02:49:11.019Z,31.70
2023-03-18T02:52:13.102Z,29.93
2023-03-18T02:55:15.667Z,29.13
2023-03-18T02:58:17.968Z,25.43
2023-03-18T03:01:20.702Z,25.90
2023-03-18T03:04:25.622Z,25.57
2023-03-18T03:07:28.402Z,23.17
2023-03-18T03:10:30.897Z,27.60
2023-03-18T03:13:33.615Z,26.60
2023-03-18T03:16:39.535Z,26.70
2023-03-18T03:19:41.926Z,23.47
2023-03-18T03:22:44.755Z,25.63
2023-03-18T03:25:47.152Z,28.50
2023-03-18T03:28:49.305Z,25.87
2023-03-18T03:31:51.787Z,26.27
2023-03-18T03:34:53.789Z,28.17
2023-03-18T03:37:56.888Z,25.77
2023-03-18T03:40:59.018Z,25.00
2023-03-18T03:44:01.387Z,23.13
2023-03-18T03:47:04.058Z,25.47
2023-03-18T03:50:06.912Z,26.00
2023-03-18T03:53:10.474Z,22.80
2023-03-18T03:56:12.851Z,25.50
2023-03-18T03:59:14.983Z,28.00
2023-03-18T04:02:18.048Z,26.93
2023-03-18T04:05:24.141Z,24.70
2023-03-18T04:08:27.097Z,25.13
2023-03-18T04:11:29.849Z,27.97
2023-03-18T04:14:32.086Z,23.37
2023-03-18T04:17:35.105Z,21.13
2023-03-18T04:20:38.788Z,27.23
2023-03-18T04:23:41.034Z,25.30
2023-03-18T04:26:43.748Z,23.77
2023-03-18T04:29:46.623Z,22.40
2023-03-18T04:32:50.447Z,23.97
2023-03-18T04:35:53.489Z,24.97
2023-03-18T04:38:57.005Z,20.27
2023-03-18T04:41:59.018Z,24.63
2023-03-18T04:45:02.193Z,24.73
2023-03-18T04:48:04.418Z,25.80
2023-03-18T04:51:08.481Z,24.60
2023-03-18T04:54:12.338Z,20.80
2023-03-18T04:57:14.926Z,27.50
2023-03-18T05:00:21.496Z,20.27
2023-03-18T05:03:23.891Z,23.57
2023-03-18T05:06:29.075Z,22.80
2023-03-18T05:09:31.538Z,24.07
2023-03-18T05:12:34.252Z,25.60
2023-03-18T05:15:37.597Z,25.07
2023-03-18T05:18:41.174Z,22.87
2023-03-18T05:21:43.476Z,22.77
2023-03-18T05:24:46.171Z,26.37
2023-03-18T05:27:49.558Z,20.90
2023-03-18T05:30:52.367Z,24.53
2023-03-18T05:33:54.855Z,21.13
2023-03-18T05:36:57.759Z,20.47
2023-03-18T05:40:00.124Z,23.73
2023-03-18T05:43:04.191Z,18.77
2023-03-18T05:46:06.687Z,26.70
2023-03-18T05:49:08.910Z,27.63
2023-03-18T05:52:11.378Z,20.00
2023-03-18T05:55:15.053Z,20.57
2023-03-18T05:58:18.406Z,22.53
2023-03-18T06:01:20.483Z,18.87
2023-03-18T06:04:22.831Z,18.57
2023-03-18T06:07:24.903Z,22.90
2023-03-18T06:10:27.907Z,22.40
2023-03-18T06:13:30.837Z,21.37
2023-03-18T06:16:35.274Z,20.80
2023-03-18T06:19:38.127Z,24.13
2023-03-18T06:22:41.108Z,23.67
2023-03-18T06:25:43.254Z,23.57
2023-03-18T06:28:46.151Z,21.23
2023-03-18T06:31:48.118Z,19.67
2023-03-18T06:34:50.626Z,23.57
2023-03-18T06:37:53.191Z,19.27
2023-03-18T06:40:56.786Z,19.20
2023-03-18T06:43:59.172Z,19.77
2023-03-18T06:47:01.715Z,22.90
2023-03-18T06:50:03.862Z,20.53
2023-03-18T06:53:06.944Z,16.40
2023-03-18T06:56:09.952Z,15.20
2023-03-18T06:59:12.278Z,14.10
2023-03-18T07:02:15.403Z,19.00
2023-03-18T07:05:18.699Z,15.83
2023-03-18T07:08:21.039Z,17.63
2023-03-18T07:11:23.515Z,17.20
2023-03-18T07:14:28.395Z,13.60
2023-03-18T07:17:30.944Z,15.63
2023-03-18T07:20:34.377Z,14.97
2023-03-18T07:23:36.877Z,15.73
2023-03-18T07:26:39.237Z,16.87
2023-03-18T07:29:41.857Z,10.50
2023-03-18T07:32:45.921Z,14.63
2023-03-18T07:36:04.630Z,17.57
2023-03-18T07:39:10.168Z,15.73
2023-03-18T07:42:12.681Z,16.20
2023-03-18T07:45:14.715Z,10.23
2023-03-18T07:48:17.083Z,11.17
2023-03-18T07:51:19.202Z,10.25
2023-03-18T07:54:21.549Z,10.80
2023-03-18T07:57:24.157Z,9.85
2023-03-18T08:00:27.238Z,13.23
2023-03-18T08:03:29.323Z,14.93
2023-03-18T08:06:32.941Z,9.40
2023-03-18T08:09:35.025Z,7.05
2023-03-18T08:12:51.285Z,9.80
2023-03-18T08:15:56.230Z,9.30
2023-03-18T08:18:58.901Z,11.17
2023-03-18T08:22:01.321Z,12.10
2023-03-18T08:25:04.452Z,7.33
2023-03-18T08:28:07.668Z,10.00
2023-03-18T08:31:10.079Z,10.63
2023-03-18T08:34:12.274Z,12.47
2023-03-18T08:37:14.659Z,9.33
2023-03-18T08:40:16.741Z,8.87
2023-03-18T08:43:22.261Z,9.17
2023-03-18T08:46:24.614Z,8.23
2023-03-18T08:49:26.992Z,11.53
2023-03-18T08:52:28.978Z,11.00
2023-03-18T08:55:34.719Z,7.75
2023-03-18T08:58:36.981Z,13.13
2023-03-18T09:01:39.916Z,10.05
2023-03-18T09:04:42.043Z,8.60
2023-03-18T09:07:45.508Z,8.60
2023-03-18T09:10:48.052Z,12.13
2023-03-18T09:13:50.798Z,9.88
2023-03-18T09:16:53.968Z,11.10
2023-03-18T09:19:56.526Z,11.68
2023-03-18T09:22:59.330Z,7.05
2023-03-18T09:26:02.214Z,11.10
2023-03-18T09:29:04.305Z,8.33
2023-03-18T09:32:06.836Z,6.93
2023-03-18T09:35:12.564Z,10.67
2023-03-18T09:38:20.836Z,14.97
2023-03-18T09:41:48.267Z,11.73
2023-03-18T09:44:58.380Z,9.80
2023-03-18T09:48:28.733Z,10.33
2023-03-18T09:52:01.296Z,11.67
2023-03-18T09:55:23.371Z,9.10
2023-03-18T09:58:40.347Z,15.35
2023-03-18T10:01:44.272Z,12.45
2023-03-18T10:04:53.481Z,10.40
2023-03-18T10:07:59.431Z,8.13
2023-03-18T10:11:10.058Z,10.45
2023-03-18T10:14:27.257Z,11.15
2023-03-18T10:17:41.898Z,13.35
2023-03-18T10:21:08.299Z,22.90
2023-03-18T10:24:35.176Z,31.20
2023-03-18T10:27:53.830Z,10.18
2023-03-18T10:31:38.707Z,8.75
2023-03-18T10:35:21.812Z,10.00
2023-03-18T10:38:59.204Z,7.45
2023-03-18T10:42:47.159Z,9.88
2023-03-18T10:45:57.873Z,7.72
2023-03-18T10:49:23.948Z,8.20
2023-03-18T10:52:41.601Z,13.05
2023-03-18T10:56:06.566Z,12.10
2023-03-18T10:59:22.507Z,8.93
2023-03-18T11:02:42.389Z,8.82
2023-03-18T11:05:53.161Z,8.57
2023-03-18T11:09:34.176Z,8.90
2023-03-18T11:12:36.438Z,9.40
2023-03-18T11:15:44.669Z,8.02
2023-03-18T11:18:49.099Z,8.60
2023-03-18T11:22:10.167Z,12.93
2023-03-18T11:25:18.216Z,13.63
2023-03-18T11:28:23.511Z,12.18
2023-03-18T11:31:25.893Z,11.50
2023-03-18T11:34:30.620Z,10.30
2023-03-18T11:37:37.322Z,9.93
2023-03-18T11:40:40.256Z,9.63
2023-03-18T11:48:19.958Z,9.63
2023-03-18T11:51:24.649Z,12.40
2023-03-18T11:54:31.805Z,11.50
2023-03-18T11:57:33.720Z,9.90
2023-03-18T12:00:50.626Z,12.13
2023-03-18T12:04:10.448Z,14.65
2023-03-18T12:07:55.751Z,16.92
2023-03-18T12:11:09.999Z,10.80
2023-03-18T12:14:25.840Z,12.25
2023-03-18T12:17:44.179Z,12.52
2023-03-18T12:20:52.576Z,12.77
2023-03-18T12:24:05.502Z,12.95
2023-03-18T12:27:22.700Z,13.23
2023-03-18T12:30:34.151Z,14.30
2023-03-18T12:33:51.446Z,9.93
2023-03-18T12:37:08.586Z,14.07
2023-03-18T12:40:30.877Z,10.70
2023-03-18T12:43:47.932Z,15.48
2023-03-18T12:46:59.980Z,15.73
2023-03-18T12:50:27.862Z,27.20
2023-03-18T12:53:35.370Z,9.75
2023-03-18T12:56:44.292Z,12.00
2023-03-18T12:59:56.753Z,10.50
2023-03-18T13:03:11.368Z,13.38
2023-03-18T13:06:20.298Z,11.70
2023-03-18T13:09:31.783Z,11.43
2023-03-18T13:12:38.589Z,9.70
2023-03-18T13:15:49.462Z,9.18
2023-03-18T13:18:56.161Z,15.82
2023-03-18T13:22:27.191Z,10.93
2023-03-18T13:25:59.260Z,13.50
2023-03-18T13:29:22.929Z,12.07
2023-03-18T13:33:00.854Z,14.32
2023-03-18T13:36:40.475Z,16.92
2023-03-18T13:40:03.897Z,10.32
2023-03-18T13:43:11.135Z,11.75
2023-03-18T13:46:23.702Z,14.07
2023-03-18T13:49:30.308Z,13.88
2023-03-18T13:52:44.117Z,26.52
2023-03-18T13:55:53.633Z,19.10
2023-03-18T13:58:56.207Z,13.52
2023-03-18T14:02:18.134Z,13.85
2023-03-18T14:05:33.934Z,12.45
2023-03-18T14:08:44.625Z,10.13
2023-03-18T14:11:47.847Z,12.60
2023-03-18T14:14:56.764Z,15.98
2023-03-18T14:18:20.300Z,19.75
2023-03-18T14:22:35.085Z,22.55
2023-03-18T14:25:42.193Z,11.93
2023-03-18T14:29:10.769Z,13.45
2023-03-18T14:32:34.121Z,9.85
2023-03-18T14:35:49.807Z,9.65
2023-03-18T14:39:19.964Z,10.82
2023-03-18T14:42:52.739Z,10.68
2023-03-18T14:46:01.839Z,12.05
2023-03-18T14:49:28.748Z,10.73
2023-03-18T14:52:35.535Z,12.00
2023-03-18T14:55:38.307Z,16.15
2023-03-18T14:58:40.937Z,12.73
2023-03-18T15:01:46.769Z,17.48
2023-03-18T15:04:58.100Z,13.63
2023-03-18T15:08:00.434Z,18.42
2023-03-18T15:11:06.049Z,11.68
2023-03-18T15:14:27.811Z,10.45
2023-03-18T15:17:30.495Z,18.02
2023-03-18T15:20:36.276Z,9.23
2023-03-18T15:23:48.266Z,10.57
2023-03-18T15:27:07.068Z,12.48
2023-03-18T15:30:50.112Z,13.27
2023-03-18T15:34:20.967Z,13.40
2023-03-18T15:37:34.481Z,13.68
2023-03-18T15:40:47.485Z,12.63
2023-03-18T15:44:13.612Z,16.88
2023-03-18T15:47:52.492Z,13.93
2023-03-18T15:51:00.749Z,13.07
2023-03-18T15:54:29.543Z,11.95
2023-03-18T15:57:38.946Z,11.60
2023-03-18T16:00:41.715Z,12.88
2023-03-18T16:03:47.952Z,14.10
2023-03-18T16:06:52.464Z,19.10
2023-03-18T16:09:54.794Z,15.75
2023-03-18T16:13:01.948Z,13.45
2023-03-18T16:16:08.322Z,14.23
2023-03-18T16:19:30.977Z,13.93
2023-03-18T16:22:34.184Z,14.57
2023-03-18T16:25:36.200Z,21.90
2023-03-18T16:28:39.469Z,30.10
2023-03-18T16:31:44.020Z,40.67
2023-03-18T16:34:46.984Z,37.65
2023-03-18T16:37:49.546Z,47.85
2023-03-18T16:40:54.735Z,33.33
2023-03-18T16:43:56.966Z,36.58
2023-03-18T16:46:59.365Z,38.42
2023-03-18T16:50:01.390Z,56.42
2023-03-18T16:53:13.731Z,69.47
2023-03-18T16:56:18.358Z,64.07
2023-03-18T16:59:20.718Z,58.70
2023-03-18T17:02:35.252Z,81.23
2023-03-18T17:05:37.789Z,80.20
2023-03-18T17:08:40.139Z,78.17
2023-03-18T17:11:43.455Z,77.83
2023-03-18T17:14:55.385Z,60.97
2023-03-18T17:18:00.721Z,80.03
2023-03-18T17:21:05.390Z,66.07
2023-03-18T17:24:08.007Z,81.27
2023-03-18T17:27:16.082Z,91.00
2023-03-18T17:30:24.088Z,74.27
2023-03-18T17:33:30.995Z,75.07
2023-03-18T17:36:33.413Z,55.30
2023-03-18T17:39:36.561Z,70.33
2023-03-18T17:42:41.163Z,72.83
2023-03-18T17:45:43.174Z,61.93
2023-03-18T17:48:46.268Z,68.90
2023-03-18T17:51:48.999Z,71.77
2023-03-18T17:54:51.841Z,54.40
2023-03-18T17:57:53.921Z,49.03
2023-03-18T18:01:15.440Z,56.20
2023-03-18T18:04:20.623Z,36.97
2023-03-18T18:07:23.644Z,37.37
2023-03-18T18:10:26.001Z,34.77
2023-03-18T18:13:29.189Z,49.50
2023-03-18T18:16:31.323Z,49.20
2023-03-18T18:19:33.790Z,61.17
2023-03-18T18:22:44.500Z,61.07
2023-03-18T18:25:46.761Z,52.77
2023-03-18T18:28:51.348Z,58.90
2023-03-18T18:31:54.082Z,52.73
2023-03-18T18:34:56.874Z,45.50
2023-03-18T18:37:59.351Z,44.57
2023-03-18T18:41:07.884Z,45.03
2023-03-18T18:44:10.304Z,49.07
2023-03-18T18:47:21.729Z,46.30
2023-03-18T18:50:29.960Z,40.83
2023-03-18T18:53:36.556Z,49.60
2023-03-18T18:56:38.878Z,51.17
2023-03-18T18:59:40.928Z,57.70
2023-03-18T19:02:43.977Z,59.73
2023-03-18T19:05:49.148Z,63.87
2023-03-18T19:08:52.504Z,62.67
2023-03-18T19:11:56.442Z,59.27
2023-03-18T19:14:59.798Z,46.07
2023-03-18T19:18:02.030Z,56.17
2023-03-18T19:21:04.865Z,51.87
2023-03-18T19:24:31.501Z,57.53
2023-03-18T19:27:34.038Z,52.70
2023-03-18T19:30:36.272Z,43.30
2023-03-18T19:33:39.683Z,53.53
2023-03-18T19:36:44.408Z,51.93
2023-03-18T19:39:49.432Z,51.23
2023-03-18T19:42:51.510Z,47.07
2023-03-18T19:45:53.886Z,60.60
2023-03-18T19:48:56.069Z,58.57
2023-03-18T19:51:58.508Z,51.07
2023-03-18T19:55:04.516Z,48.90
2023-03-18T19:58:07.700Z,49.23
2023-03-18T20:01:09.738Z,46.17
2023-03-18T20:04:15.814Z,46.33
2023-03-18T20:07:20.233Z,43.13
2023-03-18T20:10:22.929Z,41.63
2023-03-18T20:13:25.044Z,54.97
2023-03-18T20:16:33.461Z,45.40
2023-03-18T20:19:37.129Z,61.40
2023-03-18T20:22:42.489Z,53.47
2023-03-18T20:25:46.478Z,52.03
2023-03-18T20:28:53.791Z,66.00
2023-03-18T20:31:56.644Z,66.93
2023-03-18T20:34:59.321Z,49.77
2023-03-18T20:38:17.466Z,62.20
2023-03-18T20:41:20.215Z,112.03
2023-03-18T20:44:22.281Z,78.47
2023-03-18T20:47:24.571Z,92.97
2023-03-18T20:50:31.166Z,110.43
2023-03-18T20:53:33.520Z,99.73
2023-03-18T20:56:35.983Z,95.07
2023-03-18T20:59:38.292Z,95.93
2023-03-18T21:02:41.688Z,89.77
2023-03-18T21:05:43.983Z,80.03
2023-03-18T21:08:46.006Z,88.13
2023-03-18T21:11:48.837Z,62.87
2023-03-18T21:14:51.142Z,65.60
2023-03-18T21:17:54.107Z,56.00
2023-03-18T21:20:57.027Z,55.77
2023-03-18T21:23:59.379Z,69.00
2023-03-18T21:27:05.181Z,60.87
2023-03-18T21:30:09.963Z,66.40
2023-03-18T21:33:26.241Z,64.10
2023-03-18T21:36:29.258Z,54.73
2023-03-18T21:39:32.255Z,61.97
2023-03-18T21:42:35.449Z,57.03
2023-03-18T21:45:37.774Z,61.83
2023-03-18T21:48:40.504Z,54.77
2023-03-18T21:51:43.177Z,60.60
2023-03-18T21:54:46.848Z,65.37
2023-03-18T21:57:49.624Z,59.00
2023-03-18T22:00:56.466Z,49.47
2023-03-18T22:03:58.886Z,48.77
2023-03-18T22:07:01.725Z,52.37
2023-03-18T22:10:06.219Z,58.47
2023-03-18T22:13:17.540Z,51.83
2023-03-18T22:16:21.104Z,49.67
2023-03-18T22:19:24.358Z,62.63
2023-03-18T22:22:35.228Z,58.90
2023-03-18T22:25:37.615Z,58.17
2023-03-18T22:28:40.812Z,54.10
2023-03-18T22:31:43.154Z,58.87
2023-03-18T22:34:45.247Z,55.97
2023-03-18T22:37:48.033Z,51.97
2023-03-18T22:40:52.909Z,55.07
2023-03-18T22:43:55.778Z,55.73
2023-03-18T22:46:57.810Z,55.57
2023-03-18T22:50:00.262Z,52.83
2023-03-18T22:53:05.981Z,48.83
2023-03-18T22:56:14.296Z,53.93
2023-03-18T22:59:16.258Z,50.97
2023-03-18T23:02:25.156Z,45.47
2023-03-18T23:05:27.294Z,55.80
2023-03-18T23:08:29.992Z,52.87
2023-03-18T23:11:32.124Z,48.10
2023-03-18T23:14:34.341Z,51.10
2023-03-18T23:17:36.360Z,47.80
2023-03-18T23:20:38.642Z,47.80
2023-03-18T23:23:41.177Z,53.10
2023-03-18T23:26:43.461Z,46.47
2023-03-18T23:29:45.947Z,54.97
2023-03-18T23:32:48.237Z,54.30
2023-03-18T23:35:50.294Z,48.10
2023-03-18T23:38:52.620Z,51.17
2023-03-18T23:41:54.626Z,45.83
2023-03-18T23:44:57.007Z,49.73
2023-03-18T23:47:59.052Z,50.23
2023-03-18T23:51:04.168Z,52.37
2023-03-18T23:54:06.724Z,49.97
2023-03-18T23:57:10.760Z,47.50
